Time;durP1;ratioP1;P1;durP2;ratioP2;P2;SDS_P1;SDS_P2;PMS_P1;PMS_P2;Temp;Humidity;BMP_temperature;BMP_pressure;BME280_temperature;BME280_humidity;BME280_pressure;Samples;Min_cycle;Max_cycle;Signal;HPM_P1;HPM_P2
2023/02/24 00:01:28;;;;;;;9.48;3.50;;;;;;;3.06;100.00;101112.34;10209295;28;20080;-67
2023/02/24 00:06:34;;;;;;;7.55;3.92;;;;;;;3.15;100.00;101108.09;10221455;28;20053;-67
2023/02/24 00:11:32;;;;;;;10.48;3.83;;;;;;;3.15;100.00;101110.81;10216672;28;20084;-67
2023/02/24 00:16:28;;;;;;;8.43;4.05;;;;;;;3.19;100.00;101102.22;10223359;28;20073;-67
2023/02/24 00:21:25;;;;;;;9.88;3.70;;;;;;;3.23;100.00;101095.22;10215876;28;20049;-67
2023/02/24 00:26:21;;;;;;;10.45;3.72;;;;;;;3.27;100.00;101090.91;10221558;28;20044;-67
2023/02/24 00:31:18;;;;;;;6.93;3.53;;;;;;;3.24;100.00;101091.44;10205020;28;20037;-67
2023/02/24 00:36:22;;;;;;;11.13;4.60;;;;;;;3.24;100.00;101078.72;10211810;28;20076;-67
2023/02/24 00:41:21;;;;;;;10.02;4.00;;;;;;;3.30;100.00;101072.28;10219440;28;20061;-67
2023/02/24 00:46:20;;;;;;;12.40;3.95;;;;;;;3.34;100.00;101053.66;10215172;28;20532;-67
2023/02/24 00:51:22;;;;;;;11.43;3.72;;;;;;;3.26;100.00;101046.03;10219130;28;20084;-67
2023/02/24 00:56:19;;;;;;;9.93;3.70;;;;;;;3.27;100.00;101031.44;10214850;28;20109;-67
2023/02/24 01:01:19;;;;;;;7.57;3.40;;;;;;;3.24;100.00;101031.97;10216865;28;20045;-67
2023/02/24 01:06:21;;;;;;;9.25;3.72;;;;;;;3.22;100.00;101017.91;10215601;28;20057;-67
2023/02/24 01:16:40;;;;;;;8.85;4.20;;;;;;;3.20;100.00;100987.63;10210959;28;20042;-67
2023/02/24 01:21:37;;;;;;;11.38;4.15;;;;;;;3.20;100.00;100982.22;10216426;28;20046;-67
2023/02/24 01:26:33;;;;;;;12.32;4.28;;;;;;;3.20;100.00;100972.22;10216974;28;20045;-67
2023/02/24 01:31:30;;;;;;;10.35;4.80;;;;;;;3.22;100.00;100974.66;10204521;28;20052;-67
2023/02/24 01:36:26;;;;;;;9.25;4.15;;;;;;;3.15;100.00;100970.31;10216111;28;20045;-67
2023/02/24 01:41:26;;;;;;;7.30;4.38;;;;;;;3.27;100.00;100963.88;10213528;28;20547;-67
2023/02/24 01:46:25;;;;;;;13.27;5.05;;;;;;;3.22;100.00;100953.84;10226085;28;20096;-67
2023/02/24 01:51:24;;;;;;;7.18;5.05;;;;;;;3.21;100.00;100948.75;10220597;28;20049;-67
2023/02/24 01:56:20;;;;;;;7.68;4.00;;;;;;;3.16;100.00;100944.94;10207604;28;20050;-67
2023/02/24 02:01:18;;;;;;;9.65;5.47;;;;;;;3.08;100.00;100937.31;10219201;28;20055;-67
2023/02/24 02:06:18;;;;;;;11.90;4.75;;;;;;;3.18;100.00;100933.88;10213798;28;20045;-67
2023/02/24 02:11:19;;;;;;;10.05;4.65;;;;;;;3.12;100.00;100922.19;10219638;28;20077;-67
2023/02/24 02:16:25;;;;;;;13.85;4.63;;;;;;;3.13;100.00;100931.94;10221988;28;20053;-67
2023/02/24 02:22:01;;;;;;;9.00;4.40;;;;;;;3.04;100.00;100908.38;10207103;28;20529;-67
2023/02/24 02:27:19;;;;;;;14.07;4.65;;;;;;;2.96;100.00;100890.78;10205799;28;20484;-67
2023/02/24 02:32:50;;;;;;;14.30;4.82;;;;;;;3.02;100.00;100884.34;10214077;28;20060;-67
2023/02/24 02:37:50;;;;;;;11.85;4.47;;;;;;;3.01;100.00;100885.41;10225278;28;20042;-67
2023/02/24 02:43:00;;;;;;;12.88;5.32;;;;;;;2.94;100.00;100876.72;10231650;28;20056;-67
2023/02/24 02:48:05;;;;;;;9.20;4.57;;;;;;;2.84;100.00;100868.59;10232598;28;20073;-67
2023/02/24 02:53:08;;;;;;;7.78;4.40;;;;;;;2.87;100.00;100859.94;10217330;28;20515;-67
2023/02/24 02:58:13;;;;;;;6.93;4.50;;;;;;;2.92;100.00;100859.97;10222388;28;20053;-67
2023/02/24 03:03:15;;;;;;;11.57;4.68;;;;;;;2.95;100.00;100840.56;10224968;28;20410;-67
2023/02/24 03:08:17;;;;;;;5.88;4.20;;;;;;;2.94;100.00;100838.91;10213062;28;20057;-67
2023/02/24 03:13:15;;;;;;;13.38;4.40;;;;;;;2.96;100.00;100825.97;10225048;28;20042;-67
2023/02/24 03:18:19;;;;;;;10.82;4.43;;;;;;;2.90;100.00;100827.84;10212049;28;20103;-68
2023/02/24 03:23:24;;;;;;;11.13;4.55;;;;;;;2.90;100.00;100817.03;10217556;28;20052;-67
2023/02/24 03:28:32;;;;;;;13.23;4.32;;;;;;;2.93;100.00;100804.88;10220072;28;20148;-67
2023/02/24 03:33:37;;;;;;;5.22;4.40;;;;;;;2.92;100.00;100792.44;10212519;28;20064;-67
2023/02/24 03:38:37;;;;;;;7.43;4.47;;;;;;;2.86;100.00;100788.13;10229401;28;20076;-67
2023/02/24 03:43:38;;;;;;;7.65;4.30;;;;;;;2.87;100.00;100762.72;10208915;28;20069;-67
2023/02/24 03:48:43;;;;;;;9.45;4.88;;;;;;;2.90;100.00;100765.72;10214111;28;20049;-67
2023/02/24 03:53:53;;;;;;;7.25;4.55;;;;;;;2.90;100.00;100754.91;10225439;28;20037;-67
2023/02/24 03:58:58;;;;;;;8.88;5.05;;;;;;;2.87;100.00;100738.41;10215421;28;20042;-67
2023/02/24 04:04:04;;;;;;;9.05;5.22;;;;;;;2.80;100.00;100738.66;10212327;28;20096;-67
2023/02/24 04:09:14;;;;;;;13.48;5.50;;;;;;;2.82;100.00;100723.00;10218497;28;20133;-68
2023/02/24 04:14:41;;;;;;;6.38;4.60;;;;;;;2.78;100.00;100710.31;10212177;28;20137;-67
2023/02/24 04:19:41;;;;;;;11.70;4.75;;;;;;;2.80;100.00;100687.38;10219377;28;20065;-67
2023/02/24 04:24:41;;;;;;;8.35;4.68;;;;;;;2.78;100.00;100672.50;10206282;28;20881;-67
2023/02/24 04:29:46;;;;;;;13.70;4.88;;;;;;;2.74;100.00;100667.66;10208766;28;20069;-67
2023/02/24 04:34:42;;;;;;;10.35;4.90;;;;;;;2.76;100.00;100667.38;10219856;28;20072;-67
2023/02/24 04:39:39;;;;;;;8.90;5.07;;;;;;;2.74;100.00;100648.75;10217906;28;20077;-67
2023/02/24 04:44:35;;;;;;;9.75;4.65;;;;;;;2.73;100.00;100632.81;10220142;28;20049;-67
2023/02/24 04:49:32;;;;;;;9.57;4.93;;;;;;;2.82;100.00;100625.00;10211560;28;20408;-67
2023/02/24 04:54:29;;;;;;;13.02;5.00;;;;;;;2.81;100.00;100612.56;10212018;28;20064;-67
2023/02/24 04:59:26;;;;;;;9.48;4.80;;;;;;;2.77;100.00;100595.28;10216283;28;20152;-67
2023/02/24 05:04:22;;;;;;;10.93;5.10;;;;;;;2.71;100.00;100595.28;10210310;28;20045;-67
2023/02/24 05:09:20;;;;;;;8.57;4.97;;;;;;;2.68;100.00;100576.91;10219963;28;20049;-67
2023/02/24 05:14:19;;;;;;;11.07;4.95;;;;;;;2.67;100.00;100575.31;10215926;28;20041;-67
2023/02/24 05:24:33;;;;;;;13.60;5.25;;;;;;;2.54;100.00;100548.84;10205982;28;20049;-67
2023/02/24 05:29:33;;;;;;;14.85;5.43;;;;;;;2.56;100.00;100535.88;10215215;28;20418;-67
2023/02/24 05:34:31;;;;;;;6.93;4.75;;;;;;;2.63;100.00;100525.63;10208741;28;20107;-68
2023/02/24 05:39:28;;;;;;;8.18;4.75;;;;;;;2.66;100.00;100519.69;10208701;28;20068;-67
2023/02/24 05:44:25;;;;;;;18.08;6.00;;;;;;;2.66;100.00;100495.38;10206753;28;20065;-67
2023/02/24 05:49:26;;;;;;;8.32;5.63;;;;;;;2.64;100.00;100484.03;10219514;28;20526;-68
2023/02/24 05:54:28;;;;;;;9.35;4.65;;;;;;;2.65;100.00;100491.06;10202269;28;20073;-67
2023/02/24 05:59:31;;;;;;;12.73;6.63;;;;;;;2.69;100.00;100475.97;10220375;28;20552;-67
2023/02/24 06:04:38;;;;;;;10.82;5.53;;;;;;;2.69;100.00;100480.53;10223108;28;20072;-67
2023/02/24 06:09:38;;;;;;;11.27;6.03;;;;;;;2.61;100.00;100476.50;10211243;28;20128;-67
2023/02/24 06:14:35;;;;;;;11.65;6.15;;;;;;;2.39;100.00;100492.13;10213311;28;20526;-68
2023/02/24 06:19:32;;;;;;;14.15;6.32;;;;;;;2.23;100.00;100483.25;10212159;28;20415;-67
2023/02/24 06:24:31;;;;;;;9.27;6.43;;;;;;;2.15;100.00;100476.47;10210141;28;20081;-67
2023/02/24 06:29:29;;;;;;;13.77;7.03;;;;;;;2.01;100.00;100470.78;10205909;28;20056;-67
2023/02/24 06:34:26;;;;;;;10.57;7.47;;;;;;;1.84;100.00;100468.31;10196861;28;20045;-67
2023/02/24 06:39:23;;;;;;;14.10;7.10;;;;;;;1.83;100.00;100474.78;10209375;28;20045;-67
2023/02/24 06:44:19;;;;;;;10.95;8.27;;;;;;;1.74;100.00;100454.81;10216160;28;20511;-67
2023/02/24 06:49:15;;;;;;;11.23;8.05;;;;;;;1.69;100.00;100457.47;10204618;28;20435;-67
2023/02/24 06:54:12;;;;;;;11.43;7.40;;;;;;;1.61;100.00;100439.13;10214613;28;20136;-67
2023/02/24 06:59:11;;;;;;;12.98;7.25;;;;;;;1.66;100.00;100436.44;10208148;28;20053;-67
2023/02/24 07:09:07;;;;;;;9.30;7.22;;;;;;;1.54;100.00;100409.75;10203272;28;20070;-67
2023/02/24 07:14:06;;;;;;;10.95;6.90;;;;;;;1.55;100.00;100413.25;10211733;28;20500;-67
2023/02/24 07:19:12;;;;;;;10.00;6.60;;;;;;;1.53;100.00;100404.59;10220522;28;20084;-67
2023/02/24 07:24:12;;;;;;;8.13;6.80;;;;;;;1.51;100.00;100390.59;10220159;28;20046;-67
2023/02/24 07:29:10;;;;;;;12.85;6.82;;;;;;;1.50;100.00;100397.06;10228006;28;20045;-67
2023/02/24 07:34:06;;;;;;;11.10;6.75;;;;;;;1.57;100.00;100379.56;10220896;28;20457;-67
2023/02/24 07:39:06;;;;;;;9.95;7.00;;;;;;;1.56;100.00;100366.38;10228430;28;20081;-67
2023/02/24 07:44:08;;;;;;;9.30;6.82;;;;;;;1.56;100.00;100367.16;10222489;28;20060;-67
2023/02/24 07:49:08;;;;;;;8.68;6.72;;;;;;;1.53;100.00;100359.59;10224978;28;20045;-67
2023/02/24 07:54:07;;;;;;;10.80;6.93;;;;;;;1.45;100.00;100350.16;10224694;28;20081;-67
2023/02/24 07:59:08;;;;;;;11.43;7.28;;;;;;;1.51;100.00;100342.09;10219741;28;20054;-67
2023/02/24 08:04:11;;;;;;;9.40;6.30;;;;;;;1.50;100.00;100335.09;10220031;28;20268;-67
2023/02/24 08:09:16;;;;;;;17.58;7.38;;;;;;;1.40;100.00;100309.75;10218954;28;20521;-67
2023/02/24 08:14:13;;;;;;;12.48;5.68;;;;;;;1.39;100.00;100291.16;10220661;28;20073;-67
2023/02/24 08:19:12;;;;;;;7.82;5.28;;;;;;;1.40;100.00;100298.97;10213872;28;20072;-67
2023/02/24 08:24:16;;;;;;;9.07;6.07;;;;;;;1.40;100.00;100282.81;10229180;28;20130;-67
2023/02/24 08:29:13;;;;;;;6.65;5.28;;;;;;;1.42;100.00;100274.47;10231171;28;20068;-66
2023/02/24 08:34:09;;;;;;;10.15;6.88;;;;;;;1.43;100.00;100260.72;10228313;28;20060;-66
2023/02/24 08:39:06;;;;;;;12.70;7.70;;;;;;;1.49;100.00;100248.06;10224038;28;20065;-67
2023/02/24 08:44:02;;;;;;;13.32;8.52;;;;;;;1.57;100.00;100233.25;10218464;28;20165;-66
2023/02/24 08:48:59;;;;;;;13.85;9.27;;;;;;;1.54;100.00;100214.94;10213086;28;20049;-66
2023/02/24 08:53:59;;;;;;;12.77;9.25;;;;;;;1.51;100.00;100202.81;10220315;28;20037;-66
2023/02/24 08:59:04;;;;;;;10.18;8.68;;;;;;;1.57;100.00;100207.09;10227927;28;20037;-66
2023/02/24 09:04:09;;;;;;;20.75;9.82;;;;;;;1.61;100.00;100197.41;10223453;28;20060;-66
2023/02/24 09:09:20;;;;;;;12.73;8.40;;;;;;;1.61;100.00;100175.03;10207508;28;20052;-67
2023/02/24 09:14:19;;;;;;;11.38;7.72;;;;;;;1.53;100.00;100167.50;10224934;28;20175;-66
2023/02/24 09:19:39;;;;;;;10.93;7.50;;;;;;;1.52;100.00;100171.28;10214672;28;20099;-66
2023/02/24 09:24:35;;;;;;;7.82;6.50;;;;;;;1.57;100.00;100168.56;10225083;28;20064;-66
2023/02/24 09:29:32;;;;;;;8.70;6.72;;;;;;;1.57;100.00;100147.81;10224485;28;20052;-66
2023/02/24 09:34:31;;;;;;;7.97;6.43;;;;;;;1.60;100.00;100162.63;10220922;28;20140;-66
2023/02/24 09:40:21;;;;;;;12.88;7.55;;;;;;;1.54;100.00;100147.56;10228725;28;20482;-66
2023/02/24 09:44:51;;;;;;;9.45;6.65;;;;;;;1.63;100.00;100151.34;10218644;28;20140;-66
2023/02/24 09:50:21;;;;;;;11.70;6.25;;;;;;;1.60;100.00;100124.91;10214619;28;20042;-67
2023/02/24 09:55:58;;;;;;;12.30;7.68;;;;;;;1.70;100.00;100119.50;10209417;28;20052;-66
2023/02/24 10:01:20;;;;;;;8.98;6.97;;;;;;;1.65;100.00;100116.84;10214768;28;20744;-66
2023/02/24 10:06:34;;;;;;;9.15;7.05;;;;;;;1.69;100.00;100109.78;10223541;28;20042;-66
2023/02/24 10:11:33;;;;;;;11.32;7.63;;;;;;;1.83;100.00;100124.34;10228764;28;20038;-66
2023/02/24 10:16:40;;;;;;;10.00;8.02;;;;;;;1.84;100.00;100098.19;10220712;28;20072;-66
2023/02/24 10:21:59;;;;;;;9.93;7.75;;;;;;;1.84;100.00;100100.88;10224147;28;20518;-66
2023/02/24 10:26:59;;;;;;;12.00;7.43;;;;;;;1.95;100.00;100069.28;10223133;28;20119;-67
2023/02/24 10:32:09;;;;;;;13.55;8.00;;;;;;;2.02;100.00;100067.09;10223119;28;20045;-66
2023/02/24 10:37:18;;;;;;;10.60;7.93;;;;;;;2.06;100.00;100051.97;10218388;28;20057;-66
2023/02/24 10:42:33;;;;;;;13.77;7.57;;;;;;;2.06;100.00;100057.38;10212178;28;20434;-66
2023/02/24 10:47:30;;;;;;;12.35;7.97;;;;;;;2.12;100.00;100050.88;10214804;28;20052;-66
2023/02/24 10:58:06;;;;;;;11.57;7.32;;;;;;;2.12;100.00;100029.31;10217546;28;20057;-66
2023/02/24 11:03:09;;;;;;;8.98;6.60;;;;;;;2.16;100.00;100033.06;10228312;28;20067;-66
2023/02/24 11:08:38;;;;;;;8.15;6.45;;;;;;;2.22;100.00;100013.03;10220845;28;20435;-66
2023/02/24 11:18:51;;;;;;;8.77;7.32;;;;;;;2.39;100.00;99984.88;10218349;28;20045;-66
2023/02/24 11:24:15;;;;;;;7.03;6.30;;;;;;;2.44;100.00;99972.16;10223173;28;20050;-66
2023/02/24 11:29:20;;;;;;;8.60;7.03;;;;;;;2.77;100.00;99947.34;10224224;28;20553;-66
2023/02/24 11:34:37;;;;;;;9.55;7.07;;;;;;;3.14;100.00;99942.09;10228262;28;20137;-66
2023/02/24 11:39:46;;;;;;;8.63;7.13;;;;;;;3.05;100.00;99949.19;10223247;28;20052;-66
2023/02/24 11:44:58;;;;;;;8.57;7.28;;;;;;;3.02;100.00;99925.47;10228730;28;20037;-66
2023/02/24 11:50:28;;;;;;;8.50;7.68;;;;;;;3.01;100.00;99910.34;10223327;28;20059;-66
2023/02/24 11:55:38;;;;;;;9.85;7.65;;;;;;;2.98;100.00;99921.72;10227625;28;20111;-66
2023/02/24 12:00:40;;;;;;;10.75;8.45;;;;;;;3.10;100.00;99895.13;10207521;28;20049;-66
2023/02/24 12:05:45;;;;;;;10.05;8.82;;;;;;;3.05;100.00;99892.47;10226717;28;20045;-67
2023/02/24 12:10:49;;;;;;;11.50;8.57;;;;;;;3.13;100.00;99881.06;10220369;28;20053;-66
2023/02/24 12:16:01;;;;;;;13.88;8.75;;;;;;;3.41;100.00;99859.59;10211049;28;20455;-66
2023/02/24 12:21:11;;;;;;;8.80;7.90;;;;;;;3.53;100.00;99865.41;10216276;28;20041;-66
2023/02/24 12:26:26;;;;;;;8.73;7.82;;;;;;;3.74;100.00;99840.78;10207569;28;20100;-66
2023/02/24 12:32:00;;;;;;;9.77;7.95;;;;;;;3.79;100.00;99854.22;10205616;28;20420;-67
2023/02/24 12:37:16;;;;;;;13.88;9.35;;;;;;;3.65;100.00;99842.56;10208704;28;20072;-66
2023/02/24 12:42:15;;;;;;;14.05;8.55;;;;;;;3.53;100.00;99846.50;10206834;28;20050;-66
2023/02/24 12:47:25;;;;;;;12.02;8.73;;;;;;;3.70;100.00;99847.88;10218949;28;20056;-67
2023/02/24 12:52:47;;;;;;;11.57;7.63;;;;;;;3.96;100.00;99834.75;10213268;28;20529;-67
2023/02/24 12:58:11;;;;;;;11.57;8.23;;;;;;;3.98;100.00;99819.84;10229867;28;20471;-67
2023/02/24 13:03:43;;;;;;;17.13;9.52;;;;;;;4.06;100.00;99828.38;10215798;28;20046;-67
2023/02/24 13:08:49;;;;;;;13.40;8.93;;;;;;;4.13;100.00;99804.44;10217626;28;20461;-68
2023/02/24 13:13:58;;;;;;;14.23;9.27;;;;;;;4.52;100.00;99790.47;10222696;28;20041;-67
2023/02/24 13:19:04;;;;;;;19.25;7.82;;;;;;;5.02;100.00;99781.63;10217763;28;20138;-67
2023/02/24 13:24:01;;;;;;;14.00;9.20;;;;;;;4.81;100.00;99759.59;10228507;28;20493;-67
2023/02/24 13:29:08;;;;;;;12.88;9.38;;;;;;;4.67;100.00;99758.81;10217647;28;20045;-65
2023/02/24 13:34:13;;;;;;;18.38;9.45;;;;;;;4.51;100.00;99761.00;10225705;28;20152;-66
2023/02/24 13:39:31;;;;;;;16.85;9.40;;;;;;;4.48;100.00;99746.19;10219732;28;20077;-65
2023/02/24 13:44:27;;;;;;;15.63;8.65;;;;;;;4.48;100.00;99746.19;10222743;28;20043;-66
2023/02/24 13:49:57;;;;;;;17.73;8.82;;;;;;;4.48;100.00;99745.34;10211337;28;20512;-66
2023/02/24 13:54:56;;;;;;;13.00;8.32;;;;;;;4.50;100.00;99751.28;10220042;28;20033;-66
2023/02/24 14:00:51;;;;;;;9.88;6.57;;;;;;;4.50;100.00;99748.56;10220785;28;20404;-66
2023/02/24 14:05:49;;;;;;;19.85;7.55;;;;;;;4.71;100.00;99711.88;10103455;28;20464;-65
2023/02/24 14:10:54;;;;;;;15.13;7.47;;;;;;;5.90;100.00;99702.59;10186787;28;20042;-66
2023/02/24 14:15:52;;;;;;;21.77;6.65;;;;;;;8.02;100.00;99669.50;10219595;28;20446;-66
2023/02/24 14:20:50;;;;;;;11.75;5.10;;;;;;;7.37;100.00;99634.16;10215938;28;20698;-66
2023/02/24 14:25:53;;;;;;;15.20;5.75;;;;;;;8.35;100.00;99628.03;10224132;28;20460;-66
2023/02/24 14:30:54;;;;;;;;;;;;;;;7.89;100.00;99621.53;10219071;28;20042;-66
2023/02/24 14:35:51;;;;;;;11.52;5.32;;;;;;;8.62;100.00;99621.34;10226550;28;19975;-66
2023/02/24 14:40:47;;;;;;;14.20;5.43;;;;;;;8.84;100.00;99617.47;10238167;28;20124;-67
2023/02/24 14:45:52;;;;;;;16.02;6.05;;;;;;;8.10;100.00;99606.06;10220045;28;20050;-67
2023/02/24 14:50:49;;;;;;;14.07;5.45;;;;;;;6.97;100.00;99602.88;10224403;28;20045;-67
2023/02/24 14:55:49;;;;;;;13.05;5.55;;;;;;;6.47;100.00;99610.34;10225180;28;20675;-67
2023/02/24 15:00:50;;;;;;;13.65;6.30;;;;;;;6.24;100.00;99608.88;10229636;28;20076;-67
2023/02/24 15:05:53;;;;;;;12.63;5.15;;;;;;;6.10;100.00;99600.84;10223762;28;20076;-66
2023/02/24 15:10:50;;;;;;;9.65;5.40;;;;;;;5.78;100.00;99618.25;10228067;28;20053;-66
2023/02/24 15:15:46;;;;;;;7.80;4.80;;;;;;;5.46;100.00;99628.31;10226799;28;20045;-66
2023/02/24 15:20:42;;;;;;;11.00;6.07;;;;;;;5.55;100.00;99618.31;10234527;28;20087;-66
2023/02/24 15:25:43;;;;;;;9.63;5.82;;;;;;;5.55;100.00;99620.22;10222279;28;20037;-66
2023/02/24 15:30:57;;;;;;;7.32;5.22;;;;;;;5.27;100.00;99610.34;10228254;28;20042;-66
2023/02/24 15:35:57;;;;;;;12.20;5.88;;;;;;;5.16;100.00;99608.19;10224551;28;20129;-66
2023/02/24 15:40:58;;;;;;;9.82;5.65;;;;;;;5.33;100.00;99607.50;10233791;28;20120;-66
2023/02/24 15:45:54;;;;;;;13.73;6.43;;;;;;;5.31;100.00;99598.88;10225617;28;20045;-67
2023/02/24 15:50:51;;;;;;;8.48;5.53;;;;;;;5.22;100.00;99590.69;10225134;28;20681;-66
2023/02/24 15:55:48;;;;;;;9.23;6.10;;;;;;;5.18;100.00;99585.09;10227343;28;20038;-66
2023/02/24 16:00:45;;;;;;;9.60;6.07;;;;;;;5.18;100.00;99585.09;10229831;28;20068;-66
2023/02/24 16:05:41;;;;;;;12.05;6.55;;;;;;;5.33;100.00;99592.03;10232059;28;20064;-67
2023/02/24 16:10:39;;;;;;;9.50;6.05;;;;;;;5.13;100.00;99584.41;10223440;28;20530;-67
2023/02/24 16:15:38;;;;;;;13.07;6.80;;;;;;;4.96;100.00;99582.38;10225918;28;20085;-65
2023/02/24 16:20:38;;;;;;;14.63;7.80;;;;;;;4.88;100.00;99585.84;10218199;28;20042;-65
2023/02/24 16:25:38;;;;;;;10.75;7.10;;;;;;;4.93;100.00;99583.00;10219218;28;20045;-65
2023/02/24 16:30:35;;;;;;;12.40;6.50;;;;;;;4.85;100.00;99571.00;10215134;28;20527;-65
2023/02/24 16:35:32;;;;;;;15.23;7.32;;;;;;;4.78;100.00;99576.84;10225852;28;20440;-65
2023/02/24 16:40:32;;;;;;;18.90;7.05;;;;;;;4.66;100.00;99579.28;10226742;28;20128;-65
2023/02/24 16:45:29;;;;;;;17.95;7.82;;;;;;;4.57;100.00;99589.22;10222143;28;20053;-64
2023/02/24 16:50:30;;;;;;;13.20;7.65;;;;;;;4.63;100.00;99579.91;10223459;28;20132;-66
2023/02/24 16:55:27;;;;;;;15.93;7.72;;;;;;;4.54;100.00;99584.44;10225450;28;20076;-67
2023/02/24 17:00:23;;;;;;;14.88;7.47;;;;;;;4.49;100.00;99579.94;10216276;28;20041;-65
2023/02/24 17:05:25;;;;;;;15.77;8.52;;;;;;;4.57;100.00;99600.06;10212468;28;20049;-67
2023/02/24 17:10:24;;;;;;;17.67;7.20;;;;;;;4.60;100.00;99596.78;10220296;28;20412;-67
2023/02/24 17:15:22;;;;;;;22.13;9.20;;;;;;;4.59;100.00;99585.13;10226216;28;20095;-68
2023/02/24 17:20:19;;;;;;;18.80;8.60;;;;;;;4.63;100.00;99588.03;10227598;28;20046;-68
2023/02/24 17:25:24;;;;;;;20.58;8.43;;;;;;;4.61;100.00;99592.94;10220402;28;20052;-68
2023/02/24 17:30:23;;;;;;;24.52;8.48;;;;;;;4.48;100.00;99588.34;10223614;28;20045;-67
2023/02/24 17:35:20;;;;;;;22.13;8.65;;;;;;;4.36;100.00;99588.88;10221564;28;20479;-67
2023/02/24 17:40:17;;;;;;;31.15;9.27;;;;;;;4.33;100.00;99614.66;10224833;28;20575;-68
2023/02/24 17:45:14;;;;;;;21.02;7.65;;;;;;;4.27;100.00;99594.22;10230182;28;20049;-67
2023/02/24 17:50:12;;;;;;;23.55;9.13;;;;;;;4.25;100.00;99590.19;10209612;28;20049;-67
2023/02/24 17:55:09;;;;;;;25.27;8.98;;;;;;;4.18;100.00;99590.63;10224957;28;20067;-68
2023/02/24 18:00:07;;;;;;;29.55;9.57;;;;;;;4.07;100.00;99589.25;10225923;28;20099;-68
2023/02/24 18:05:03;;;;;;;26.58;9.85;;;;;;;3.96;100.00;99594.84;10229590;28;20064;-67
2023/02/24 18:10:00;;;;;;;31.15;10.55;;;;;;;3.87;100.00;99591.22;10211353;28;20486;-67
2023/02/24 18:14:56;;;;;;;25.13;10.40;;;;;;;3.87;100.00;99593.94;10215782;28;20135;-67
2023/02/24 18:20:05;;;;;;;41.50;11.02;;;;;;;3.82;100.00;99591.34;10220294;28;20057;-67
2023/02/24 18:25:02;;;;;;;37.95;9.70;;;;;;;3.77;100.00;99586.03;10222524;28;20099;-68
2023/02/24 18:29:58;;;;;;;25.95;8.88;;;;;;;3.67;100.00;99587.03;10221695;28;20068;-67
2023/02/24 18:34:55;;;;;;;30.17;9.70;;;;;;;3.61;100.00;99592.84;10215453;28;20037;-65
2023/02/24 18:39:52;;;;;;;29.73;8.38;;;;;;;3.63;100.00;99606.84;10224231;28;20133;-65
2023/02/24 18:44:48;;;;;;;27.58;10.40;;;;;;;3.54;100.00;99604.81;10218788;28;20042;-67
2023/02/24 18:49:45;;;;;;;30.48;8.95;;;;;;;3.52;100.00;99596.22;10209072;28;20049;-66
2023/02/24 18:54:41;;;;;;;32.72;9.93;;;;;;;3.62;100.00;99594.44;10221248;28;20081;-66
2023/02/24 18:59:37;;;;;;;33.25;10.50;;;;;;;3.72;100.00;99599.66;10212256;28;20045;-66
2023/02/24 19:04:34;;;;;;;31.75;10.25;;;;;;;3.81;100.00;99603.28;10225066;28;20042;-67
2023/02/24 19:09:30;;;;;;;23.42;8.50;;;;;;;3.74;100.00;99592.06;10218974;28;20060;-67
2023/02/24 19:14:27;;;;;;;27.48;9.27;;;;;;;3.69;100.00;99594.81;10208940;28;20488;-65
2023/02/24 19:19:23;;;;;;;34.65;8.77;;;;;;;3.62;100.00;99600.66;10224416;28;20140;-66
2023/02/24 19:24:20;;;;;;;20.27;8.20;;;;;;;3.54;100.00;99599.41;10229461;28;20519;-66
2023/02/24 19:29:18;;;;;;;22.05;7.30;;;;;;;3.62;100.00;99600.66;10224893;28;20108;-66
2023/02/24 19:34:15;;;;;;;33.30;8.55;;;;;;;3.65;100.00;99597.34;10226110;28;20491;-66
2023/02/24 19:39:13;;;;;;;37.15;9.52;;;;;;;3.64;100.00;99597.63;10225728;28;20543;-66
2023/02/24 19:44:10;;;;;;;21.63;8.05;;;;;;;3.62;100.00;99600.66;10229872;28;20037;-66
2023/02/24 19:49:06;;;;;;;33.85;9.55;;;;;;;3.54;100.00;99599.41;10216857;28;20053;-66
2023/02/24 19:54:04;;;;;;;35.38;10.38;;;;;;;3.53;100.00;99592.44;10231419;28;20042;-66
2023/02/24 19:59:03;;;;;;;28.95;9.98;;;;;;;3.57;100.00;99603.44;10225178;28;20091;-66
2023/02/24 20:04:02;;;;;;;40.78;11.02;;;;;;;3.62;100.00;99605.25;10233715;28;21674;-66
2023/02/24 20:08:59;;;;;;;23.55;7.97;;;;;;;3.64;100.00;99597.63;10220520;28;20529;-66
2023/02/24 20:13:56;;;;;;;25.90;8.68;;;;;;;3.66;100.00;99608.94;10223758;28;20125;-66
2023/02/24 20:18:55;;;;;;;28.65;7.50;;;;;;;3.62;100.00;99602.53;10216748;28;20050;-66
2023/02/24 20:23:52;;;;;;;18.92;7.68;;;;;;;3.71;100.00;99606.16;10222716;28;20121;-66
2023/02/24 20:28:48;;;;;;;17.63;6.95;;;;;;;3.77;100.00;99608.47;10219747;28;20041;-66
2023/02/24 20:33:46;;;;;;;25.63;7.50;;;;;;;3.78;100.00;99611.97;10230297;28;20043;-66
2023/02/24 20:38:43;;;;;;;26.13;6.50;;;;;;;3.82;100.00;99609.47;10223999;28;20137;-68
2023/02/24 20:43:40;;;;;;;19.67;6.95;;;;;;;3.82;100.00;99607.56;10221114;28;20042;-66
2023/02/24 20:48:36;;;;;;;27.00;8.60;;;;;;;3.77;100.00;99610.38;10210562;28;20073;-66
2023/02/24 20:53:33;;;;;;;28.92;8.40;;;;;;;3.70;100.00;99618.06;10218911;28;20049;-66
2023/02/24 20:58:35;;;;;;;29.67;9.70;;;;;;;3.68;100.00;99618.38;10220865;28;20037;-66
2023/02/24 21:03:31;;;;;;;24.27;7.88;;;;;;;3.74;100.00;99619.88;10213751;28;20073;-65
2023/02/24 21:08:28;;;;;;;25.20;8.13;;;;;;;3.74;100.00;99624.50;10222256;28;20046;-67
2023/02/24 21:13:24;;;;;;;20.92;6.95;;;;;;;3.72;100.00;99621.28;10223636;28;20107;-66
2023/02/24 21:18:21;;;;;;;17.05;6.53;;;;;;;3.69;100.00;99624.56;10220518;28;20133;-66
2023/02/24 21:23:18;;;;;;;24.30;8.90;;;;;;;3.79;100.00;99627.91;10223297;28;20695;-66
2023/02/24 21:28:15;;;;;;;20.23;7.40;;;;;;;3.84;100.00;99624.28;10220619;28;20463;-66
2023/02/24 21:33:11;;;;;;;18.10;5.00;;;;;;;3.84;100.00;99624.28;10228041;28;20041;-66
2023/02/24 21:38:09;;;;;;;12.23;5.10;;;;;;;3.87;100.00;99629.09;10226877;28;20069;-66
2023/02/24 21:43:06;;;;;;;13.20;5.70;;;;;;;3.80;100.00;99640.31;10217940;28;20558;-67
2023/02/24 21:48:02;;;;;;;15.95;5.20;;;;;;;3.81;100.00;99643.81;10224452;28;20069;-66
2023/02/24 21:52:59;;;;;;;12.65;4.70;;;;;;;3.62;100.00;99637.69;10215462;28;20557;-66
2023/02/24 21:57:56;;;;;;;6.72;3.85;;;;;;;3.62;100.00;99651.19;10226185;28;20096;-66
2023/02/24 22:02:54;;;;;;;8.45;4.97;;;;;;;3.63;100.00;99660.91;10217742;28;20069;-66
2023/02/24 22:07:51;;;;;;;5.65;4.45;;;;;;;3.63;100.00;99666.31;10217204;28;20126;-66
2023/02/24 22:12:49;;;;;;;11.55;5.15;;;;;;;3.41;100.00;99662.34;10225236;28;20045;-66
2023/02/24 22:17:46;;;;;;;5.43;3.75;;;;;;;3.28;100.00;99676.63;10218283;28;20049;-66
2023/02/24 22:22:42;;;;;;;7.18;4.32;;;;;;;3.30;100.00;99666.34;10220902;28;20530;-68
2023/02/24 22:27:38;;;;;;;4.22;3.80;;;;;;;3.24;100.00;99670.19;10218429;28;20069;-63
2023/02/24 22:32:36;;;;;;;4.35;3.40;;;;;;;3.23;100.00;99682.13;10219436;28;20037;-65
2023/02/24 22:37:32;;;;;;;4.38;3.75;;;;;;;3.22;100.00;99677.78;10225661;28;20469;-66
2023/02/24 22:42:29;;;;;;;4.95;4.13;;;;;;;3.14;100.00;99676.56;10213587;28;20449;-66
2023/02/24 22:47:25;;;;;;;4.97;3.50;;;;;;;3.09;100.00;99692.88;10226875;28;20064;-67
2023/02/24 22:52:22;;;;;;;7.38;3.85;;;;;;;2.98;100.00;99689.50;10217116;28;20045;-66
2023/02/24 22:57:18;;;;;;;6.63;3.88;;;;;;;2.91;100.00;99683.66;10224540;28;20088;-66
2023/02/24 23:02:14;;;;;;;5.07;3.60;;;;;;;2.78;100.00;99695.19;10228192;28;20055;-66
2023/02/24 23:07:11;;;;;;;6.45;3.70;;;;;;;2.67;100.00;99700.72;10225775;28;20045;-66
2023/02/24 23:12:08;;;;;;;5.13;3.72;;;;;;;2.60;100.00;99716.47;10222085;28;20080;-66
2023/02/24 23:17:07;;;;;;;4.82;4.35;;;;;;;2.52;100.00;99720.59;10214971;28;20072;-66
2023/02/24 23:22:06;;;;;;;6.68;3.50;;;;;;;2.50;100.00;99719.28;10225315;28;20160;-66
2023/02/24 23:27:03;;;;;;;5.90;3.70;;;;;;;2.43;100.00;99719.63;10232447;28;20085;-66
2023/02/24 23:32:00;;;;;;;6.00;3.47;;;;;;;2.43;100.00;99727.72;10221661;28;20411;-66